createdAt,value
2019-05-23T00:00:49.300Z,2.93
2019-05-23T00:03:41.833Z,3.03
2019-05-23T00:06:27.902Z,2.83
2019-05-23T00:09:14.672Z,2.80
2019-05-23T00:11:46.947Z,2.63
2019-05-23T00:14:24.855Z,3.00
2019-05-23T00:16:54.988Z,2.97
2019-05-23T00:19:23.364Z,3.20
2019-05-23T00:21:52.615Z,2.80
2019-05-23T00:24:21.710Z,2.83
2019-05-23T00:26:50.482Z,3.00
2019-05-23T00:29:18.330Z,3.03
2019-05-23T00:31:51.948Z,3.00
2019-05-23T00:34:20.788Z,3.47
2019-05-23T00:36:48.919Z,3.10
2019-05-23T00:39:16.684Z,3.20
2019-05-23T00:41:45.219Z,3.00
2019-05-23T00:44:13.207Z,3.60
2019-05-23T00:46:43.312Z,3.37
2019-05-23T00:49:15.486Z,2.70
2019-05-23T00:51:44.895Z,3.70
2019-05-23T00:54:14.017Z,2.73
2019-05-23T00:56:42.226Z,2.83
2019-05-23T00:59:24.422Z,2.93
2019-05-23T01:01:40.880Z,2.70
2019-05-23T01:04:10.600Z,2.93
2019-05-23T01:06:38.616Z,2.90
2019-05-23T01:09:07.447Z,2.97
2019-05-23T01:11:37.430Z,3.00
2019-05-23T01:14:05.759Z,2.77
2019-05-23T01:16:33.564Z,3.13
2019-05-23T01:19:02.134Z,3.27
2019-05-23T01:21:47.694Z,3.17
2019-05-23T01:24:37.852Z,3.40
2019-05-23T01:27:06.677Z,3.10
2019-05-23T01:29:41.494Z,3.03
2019-05-23T01:32:17.681Z,3.10
2019-05-23T01:34:45.578Z,3.40
2019-05-23T01:37:13.389Z,3.37
2019-05-23T01:39:41.075Z,3.30
2019-05-23T01:42:08.753Z,2.83
2019-05-23T01:44:36.711Z,3.13
2019-05-23T01:47:05.517Z,3.30
2019-05-23T01:49:33.584Z,3.80
2019-05-23T01:52:01.256Z,3.43
2019-05-23T01:54:29.136Z,3.60
2019-05-23T01:56:57.551Z,4.10
2019-05-23T01:59:25.511Z,4.30
2019-05-23T02:01:53.349Z,3.87
2019-05-23T02:04:21.152Z,4.03
2019-05-23T02:06:50.197Z,4.03
2019-05-23T02:09:18.441Z,3.93
2019-05-23T02:11:46.006Z,3.70
2019-05-23T02:14:14.154Z,3.43
2019-05-23T02:16:42.458Z,3.50
2019-05-23T02:19:13.662Z,3.63
2019-05-23T02:21:40.406Z,3.57
2019-05-23T02:24:08.838Z,4.03
2019-05-23T02:26:37.824Z,3.67
2019-05-23T02:29:06.409Z,4.20
2019-05-23T02:31:34.230Z,4.60
2019-05-23T02:34:02.155Z,3.93
2019-05-23T02:36:32.317Z,4.03
2019-05-23T02:39:28.735Z,4.27
2019-05-23T02:42:03.021Z,4.33
2019-05-23T02:44:32.611Z,3.83
2019-05-23T02:47:25.981Z,4.53
2019-05-23T02:49:55.729Z,4.33
2019-05-23T02:52:36.517Z,4.60
2019-05-23T02:55:09.192Z,4.17
2019-05-23T02:57:37.594Z,4.70
2019-05-23T03:00:54.989Z,4.40
2019-05-23T03:03:25.240Z,4.50
2019-05-23T03:05:54.925Z,4.63
2019-05-23T03:08:24.044Z,4.93
2019-05-23T03:10:57.261Z,4.77
2019-05-23T03:13:29.500Z,5.03
2019-05-23T03:15:57.911Z,4.63
2019-05-23T03:18:28.286Z,4.60
2019-05-23T03:20:57.671Z,4.87
2019-05-23T03:23:27.217Z,4.77
2019-05-23T03:26:35.770Z,5.20
2019-05-23T03:29:04.311Z,4.43
2019-05-23T03:31:39.787Z,4.60
2019-05-23T03:34:09.808Z,4.60
2019-05-23T03:36:37.889Z,4.93
2019-05-23T03:39:07.323Z,4.97
2019-05-23T03:41:35.833Z,4.60
2019-05-23T03:44:04.285Z,4.57
2019-05-23T03:46:33.900Z,4.83
2019-05-23T03:49:01.930Z,4.47
2019-05-23T03:51:30.641Z,4.30
2019-05-23T03:54:00.825Z,4.47
2019-05-23T03:56:29.471Z,4.20
2019-05-23T03:58:58.230Z,4.67
2019-05-23T04:01:46.270Z,5.10
2019-05-23T04:04:00.133Z,4.80
2019-05-23T04:06:28.700Z,4.77
2019-05-23T04:08:56.952Z,5.00
2019-05-23T04:11:24.966Z,4.97
2019-05-23T04:13:52.714Z,4.83
2019-05-23T04:16:22.192Z,4.87
2019-05-23T04:18:49.909Z,4.90
2019-05-23T04:21:22.558Z,5.30
2019-05-23T04:23:51.296Z,5.30
2019-05-23T04:26:19.620Z,4.97
2019-05-23T04:28:47.263Z,5.33
2019-05-23T04:31:15.055Z,5.47
2019-05-23T04:33:44.079Z,4.77
2019-05-23T04:36:12.260Z,4.97
2019-05-23T04:38:40.069Z,5.50
2019-05-23T04:41:07.656Z,5.30
2019-05-23T04:43:35.322Z,5.17
2019-05-23T04:46:05.033Z,5.67
2019-05-23T04:48:32.807Z,6.00
2019-05-23T04:51:02.390Z,7.37
2019-05-23T04:53:30.896Z,7.93
2019-05-23T04:55:58.671Z,6.10
2019-05-23T04:58:26.341Z,7.23
2019-05-23T05:00:55.491Z,7.43
2019-05-23T05:03:23.895Z,7.73
2019-05-23T05:05:53.055Z,8.50
2019-05-23T05:08:20.957Z,8.13
2019-05-23T05:10:49.072Z,7.37
2019-05-23T05:13:16.853Z,6.77
2019-05-23T05:15:44.688Z,6.27
2019-05-23T05:18:12.424Z,7.20
2019-05-23T05:20:40.185Z,6.40
2019-05-23T05:23:08.048Z,6.60
2019-05-23T05:25:36.452Z,6.73
2019-05-23T05:28:04.643Z,6.53
2019-05-23T05:30:32.492Z,6.80
2019-05-23T05:33:00.760Z,6.97
2019-05-23T05:35:29.631Z,6.87
2019-05-23T05:37:57.727Z,3.77
2019-05-23T05:40:26.342Z,3.40
2019-05-23T05:42:55.359Z,2.70
2019-05-23T05:45:24.800Z,2.80
2019-05-23T05:47:52.976Z,2.30
2019-05-23T05:50:21.823Z,2.90
2019-05-23T05:52:49.715Z,2.90
2019-05-23T05:55:17.564Z,3.33
2019-05-23T05:57:45.334Z,2.60
2019-05-23T06:00:33.066Z,2.70
2019-05-23T06:03:05.355Z,2.20
2019-05-23T06:05:41.570Z,2.80
2019-05-23T06:08:09.929Z,2.63
2019-05-23T06:10:38.656Z,2.50
2019-05-23T06:13:06.476Z,2.97
2019-05-23T06:15:34.563Z,3.03
2019-05-23T06:18:03.152Z,2.80
2019-05-23T06:20:31.668Z,2.50
2019-05-23T06:23:00.225Z,2.77
2019-05-23T06:25:28.115Z,2.60
2019-05-23T06:27:59.085Z,2.70
2019-05-23T06:30:32.636Z,2.70
2019-05-23T06:32:58.813Z,3.30
2019-05-23T06:35:26.855Z,3.10
2019-05-23T06:37:54.501Z,3.10
2019-05-23T06:40:22.750Z,2.70
2019-05-23T06:42:51.195Z,2.77
2019-05-23T06:45:20.169Z,2.67
2019-05-23T06:47:47.823Z,2.70
2019-05-23T06:50:18.766Z,3.03
2019-05-23T06:52:46.787Z,2.97
2019-05-23T06:55:14.794Z,2.70
2019-05-23T06:57:42.788Z,2.80
2019-05-23T07:00:14.380Z,2.90
2019-05-23T07:02:43.343Z,3.07
2019-05-23T07:05:11.714Z,3.17
2019-05-23T07:07:41.143Z,3.07
2019-05-23T07:10:09.364Z,3.40
2019-05-23T07:12:37.612Z,3.60
2019-05-23T07:15:05.977Z,3.43
2019-05-23T07:17:34.319Z,3.87
2019-05-23T07:20:02.153Z,3.87
2019-05-23T07:22:30.315Z,3.97
2019-05-23T07:24:59.030Z,3.10
2019-05-23T07:27:28.990Z,3.83
2019-05-23T07:29:56.811Z,3.73
2019-05-23T07:32:24.635Z,3.03
2019-05-23T07:34:52.388Z,3.60
2019-05-23T07:37:20.511Z,3.60
2019-05-23T07:39:48.246Z,3.90
2019-05-23T07:42:16.553Z,3.77
2019-05-23T07:44:48.541Z,4.20
2019-05-23T07:47:16.015Z,3.87
2019-05-23T07:49:44.389Z,4.20
2019-05-23T07:52:12.132Z,5.23
2019-05-23T07:54:50.233Z,4.20
2019-05-23T07:57:19.006Z,4.23
2019-05-23T07:59:46.856Z,3.40
2019-05-23T08:02:25.445Z,3.73
2019-05-23T08:04:52.661Z,4.27
2019-05-23T08:07:23.098Z,3.60
2019-05-23T08:09:51.444Z,3.77
2019-05-23T08:12:21.196Z,4.07
2019-05-23T08:14:49.219Z,3.43
2019-05-23T08:17:17.467Z,3.20
2019-05-23T08:19:49.706Z,3.27
2019-05-23T08:22:15.472Z,3.03
2019-05-23T08:24:43.621Z,2.33
2019-05-23T08:27:12.617Z,2.30
2019-05-23T08:29:40.890Z,2.23
2019-05-23T08:32:09.292Z,2.40
2019-05-23T08:34:42.158Z,2.57
2019-05-23T08:37:08.510Z,2.30
2019-05-23T08:39:37.598Z,2.37
2019-05-23T08:42:07.936Z,2.00
2019-05-23T08:44:36.037Z,2.33
2019-05-23T08:47:06.481Z,2.60
2019-05-23T08:49:34.619Z,1.90
2019-05-23T08:52:02.881Z,2.00
2019-05-23T08:54:32.605Z,2.40
2019-05-23T08:57:01.108Z,2.13
2019-05-23T08:59:29.590Z,2.23
2019-05-23T09:01:57.654Z,2.40
2019-05-23T09:04:26.967Z,2.90
2019-05-23T09:06:55.403Z,2.50
2019-05-23T09:09:29.804Z,2.50
2019-05-23T09:11:53.769Z,2.23
2019-05-23T09:14:21.521Z,2.33
2019-05-23T09:16:49.419Z,2.07
2019-05-23T09:19:17.331Z,2.27
2019-05-23T09:21:44.987Z,2.07
2019-05-23T09:24:13.206Z,2.23
2019-05-23T09:26:41.344Z,2.50
2019-05-23T09:29:09.819Z,2.13
2019-05-23T09:31:39.175Z,2.10
2019-05-23T09:34:07.669Z,2.03
2019-05-23T09:36:36.006Z,1.90
2019-05-23T09:39:07.491Z,1.90
2019-05-23T09:41:35.705Z,1.77
2019-05-23T09:44:04.656Z,2.37
2019-05-23T09:46:32.792Z,1.90
2019-05-23T09:49:00.745Z,2.03
2019-05-23T09:51:28.531Z,2.00
2019-05-23T09:53:58.154Z,2.10
2019-05-23T09:56:26.626Z,1.83
2019-05-23T09:58:54.991Z,1.97
2019-05-23T10:01:23.818Z,2.30
2019-05-23T10:03:52.157Z,2.00
2019-05-23T10:06:20.208Z,2.00
2019-05-23T10:08:48.376Z,1.83
2019-05-23T10:11:16.801Z,1.77
2019-05-23T10:13:44.805Z,1.90
2019-05-23T10:16:13.046Z,2.03
2019-05-23T10:18:42.383Z,1.80
2019-05-23T10:21:10.569Z,2.37
2019-05-23T10:23:38.721Z,1.97
2019-05-23T10:26:07.769Z,1.73
2019-05-23T10:28:35.918Z,1.77
2019-05-23T10:31:06.390Z,2.00
2019-05-23T10:33:34.364Z,1.70
2019-05-23T10:36:02.031Z,1.70
2019-05-23T10:38:29.821Z,1.90
2019-05-23T10:40:57.960Z,2.00
2019-05-23T10:43:25.898Z,2.17
2019-05-23T10:45:54.132Z,2.05
2019-05-23T10:48:22.837Z,2.27
2019-05-23T10:50:50.688Z,2.20
2019-05-23T10:53:18.909Z,2.05
2019-05-23T10:55:46.885Z,2.08
2019-05-23T10:58:15.598Z,1.77
2019-05-23T11:00:44.250Z,2.00
2019-05-23T11:03:12.445Z,2.30
2019-05-23T11:05:40.715Z,2.00
2019-05-23T11:08:09.937Z,2.02
2019-05-23T11:10:38.123Z,2.00
2019-05-23T11:13:06.394Z,2.20
2019-05-23T11:15:34.683Z,1.92
2019-05-23T11:18:04.047Z,2.30
2019-05-23T11:20:35.434Z,2.12
2019-05-23T11:23:03.752Z,2.20
2019-05-23T11:25:32.385Z,1.85
2019-05-23T11:28:00.460Z,1.95
2019-05-23T11:30:37.763Z,2.22
2019-05-23T11:33:06.638Z,2.17
2019-05-23T11:35:34.851Z,1.90
2019-05-23T11:38:03.485Z,1.90
2019-05-23T11:40:33.780Z,2.05
2019-05-23T11:43:01.924Z,1.80
2019-05-23T11:45:32.773Z,1.85
2019-05-23T11:48:01.090Z,1.65
2019-05-23T11:50:29.957Z,2.02
2019-05-23T11:52:58.033Z,1.90
2019-05-23T11:55:26.033Z,1.90
2019-05-23T11:57:54.223Z,1.80
2019-05-23T12:00:48.196Z,1.87
2019-05-23T12:03:16.124Z,1.77
2019-05-23T12:05:44.238Z,1.87
2019-05-23T12:08:12.473Z,1.65
2019-05-23T12:10:40.189Z,2.00
2019-05-23T12:13:08.347Z,2.00
2019-05-23T12:15:38.275Z,1.90
2019-05-23T12:18:07.445Z,1.77
2019-05-23T12:20:35.551Z,2.15
2019-05-23T12:23:10.753Z,1.90
2019-05-23T12:25:35.627Z,2.15
2019-05-23T12:28:06.059Z,2.05
2019-05-23T12:30:35.418Z,1.80
2019-05-23T12:33:03.518Z,2.10
2019-05-23T12:35:31.489Z,2.00
2019-05-23T12:38:02.455Z,1.70
2019-05-23T12:40:29.180Z,1.98
2019-05-23T12:42:57.274Z,2.10
2019-05-23T12:45:25.001Z,2.05
2019-05-23T12:47:58.017Z,2.00
2019-05-23T12:50:30.315Z,1.95
2019-05-23T12:52:58.189Z,2.00
2019-05-23T12:55:26.006Z,2.17
2019-05-23T12:57:53.713Z,2.00
2019-05-23T13:00:47.262Z,2.00
2019-05-23T13:03:16.617Z,2.00
2019-05-23T13:05:44.568Z,1.90
2019-05-23T13:08:12.438Z,2.10
2019-05-23T13:10:40.243Z,1.92
2019-05-23T13:13:08.181Z,1.90
2019-05-23T13:15:36.529Z,1.77
2019-05-23T13:18:04.740Z,1.80
2019-05-23T13:20:33.372Z,1.97
2019-05-23T13:23:01.254Z,2.00
2019-05-23T13:25:29.561Z,2.20
2019-05-23T13:27:58.974Z,2.00
2019-05-23T13:30:26.987Z,2.20
2019-05-23T13:32:54.805Z,2.10
2019-05-23T13:35:23.134Z,2.10
2019-05-23T13:37:53.952Z,1.80
2019-05-23T13:40:21.309Z,1.80
2019-05-23T13:42:49.110Z,1.97
2019-05-23T13:45:16.791Z,1.97
2019-05-23T13:47:44.596Z,1.90
2019-05-23T13:50:14.136Z,1.87
2019-05-23T13:52:42.365Z,1.90
2019-05-23T13:55:10.138Z,1.70
2019-05-23T13:57:37.916Z,1.77
2019-05-23T14:00:06.376Z,1.77
2019-05-23T14:02:34.142Z,1.80
2019-05-23T14:05:03.072Z,1.70
2019-05-23T14:07:31.477Z,1.80
2019-05-23T14:09:59.466Z,2.07
2019-05-23T14:12:29.455Z,1.73
2019-05-23T14:14:57.067Z,2.20
2019-05-23T14:17:40.337Z,1.90
2019-05-23T14:20:08.231Z,2.10
2019-05-23T14:22:39.884Z,1.80
2019-05-23T14:25:07.844Z,1.63
2019-05-23T14:27:59.583Z,1.90
2019-05-23T14:31:01.585Z,1.80
2019-05-23T14:33:47.735Z,2.13
2019-05-23T14:36:24.945Z,1.90
2019-05-23T14:38:54.753Z,1.90
2019-05-23T14:41:22.471Z,1.80
2019-05-23T14:43:51.352Z,2.00
2019-05-23T14:46:19.077Z,1.93
2019-05-23T14:48:57.793Z,1.80
2019-05-23T14:51:43.515Z,1.90
2019-05-23T14:54:17.124Z,1.90
2019-05-23T14:56:45.255Z,2.00
2019-05-23T14:59:13.326Z,1.97
2019-05-23T15:01:40.959Z,2.30
2019-05-23T15:04:08.990Z,1.90
2019-05-23T15:06:36.865Z,2.00
2019-05-23T15:09:06.382Z,1.93
2019-05-23T15:11:34.221Z,2.00
2019-05-23T15:14:02.070Z,2.23
2019-05-23T15:16:29.706Z,2.00
2019-05-23T15:18:57.447Z,1.90
2019-05-23T15:21:25.256Z,1.80
2019-05-23T15:23:53.014Z,1.93
2019-05-23T15:26:23.453Z,1.80
2019-05-23T15:28:50.557Z,1.93
2019-05-23T15:31:19.124Z,1.80
2019-05-23T15:33:47.017Z,1.70
2019-05-23T15:36:14.839Z,1.83
2019-05-23T15:38:42.765Z,2.00
2019-05-23T15:41:10.705Z,2.10
2019-05-23T15:43:40.300Z,2.00
2019-05-23T15:46:08.275Z,2.30
2019-05-23T15:48:36.157Z,2.03
2019-05-23T15:51:04.622Z,2.10
2019-05-23T15:53:43.516Z,2.00
2019-05-23T15:56:28.454Z,2.00
2019-05-23T15:59:07.050Z,2.10
2019-05-23T16:01:42.031Z,1.93
2019-05-23T16:04:11.509Z,1.90
2019-05-23T16:06:39.471Z,1.93
2019-05-23T16:09:27.814Z,2.10
2019-05-23T16:11:40.529Z,1.83
2019-05-23T16:14:08.318Z,1.90
2019-05-23T16:16:36.205Z,1.80
2019-05-23T16:19:04.291Z,2.30
2019-05-23T16:21:32.589Z,2.20
2019-05-23T16:24:01.043Z,1.80
2019-05-23T16:26:29.080Z,1.80
2019-05-23T16:28:57.035Z,2.20
2019-05-23T16:31:24.868Z,2.07
2019-05-23T16:33:52.767Z,2.07
2019-05-23T16:36:20.588Z,1.80
2019-05-23T16:38:49.353Z,2.13
2019-05-23T16:41:17.267Z,2.40
2019-05-23T16:43:46.015Z,1.90
2019-05-23T16:46:14.226Z,2.10
2019-05-23T16:48:43.843Z,2.23
2019-05-23T16:51:11.787Z,2.40
2019-05-23T16:53:39.811Z,2.00
2019-05-23T16:56:21.551Z,2.27
2019-05-23T16:59:03.162Z,2.03
2019-05-23T17:01:57.798Z,1.80
2019-05-23T17:04:29.139Z,1.87
2019-05-23T17:07:06.413Z,2.00
2019-05-23T17:10:08.480Z,2.13
2019-05-23T17:12:41.972Z,2.20
2019-05-23T17:15:38.295Z,2.40
2019-05-23T17:18:25.618Z,2.40
2019-05-23T17:21:02.193Z,2.10
2019-05-23T17:23:48.231Z,2.50
2019-05-23T17:26:47.065Z,2.43
2019-05-23T17:29:36.298Z,2.10
2019-05-23T17:32:06.923Z,2.50
2019-05-23T17:34:35.071Z,2.50
2019-05-23T17:37:04.960Z,2.57
2019-05-23T17:39:33.575Z,2.70
2019-05-23T17:42:01.310Z,2.57
2019-05-23T17:44:29.124Z,2.50
2019-05-23T17:46:56.820Z,2.70
2019-05-23T17:49:24.558Z,2.53
2019-05-23T17:51:52.221Z,2.83
2019-05-23T17:54:20.144Z,2.67
2019-05-23T17:56:47.981Z,2.80
2019-05-23T17:59:15.642Z,3.00
2019-05-23T18:01:44.163Z,10.07
2019-05-23T18:04:12.520Z,5.67
2019-05-23T18:06:40.286Z,6.50
2019-05-23T18:09:09.053Z,6.67
2019-05-23T18:11:36.888Z,6.43
2019-05-23T18:14:05.324Z,4.77
2019-05-23T18:16:33.150Z,3.30
2019-05-23T18:19:01.774Z,3.03
2019-05-23T18:21:31.146Z,2.80
2019-05-23T18:24:00.301Z,2.90
2019-05-23T18:26:28.216Z,2.63
2019-05-23T18:28:56.118Z,2.23
2019-05-23T18:31:27.065Z,3.13
2019-05-23T18:33:55.159Z,2.73
2019-05-23T18:36:24.624Z,3.03
2019-05-23T18:38:52.477Z,2.90
2019-05-23T18:41:20.418Z,3.00
2019-05-23T18:43:49.671Z,3.03
2019-05-23T18:46:26.734Z,2.93
2019-05-23T18:48:54.827Z,2.97
2019-05-23T18:51:22.757Z,2.70
2019-05-23T18:53:50.660Z,3.10
2019-05-23T18:56:18.603Z,2.87
2019-05-23T18:58:46.558Z,3.20
2019-05-23T19:01:19.248Z,4.20
2019-05-23T19:03:47.032Z,4.50
2019-05-23T19:06:15.169Z,4.80
2019-05-23T19:08:43.031Z,4.17
2019-05-23T19:11:20.121Z,4.27
2019-05-23T19:13:40.609Z,3.90
2019-05-23T19:16:08.382Z,4.00
2019-05-23T19:18:36.933Z,3.77
2019-05-23T19:21:05.876Z,3.40
2019-05-23T19:23:34.356Z,3.50
2019-05-23T19:26:02.323Z,2.80
2019-05-23T19:28:30.333Z,3.00
2019-05-23T19:30:58.339Z,2.70
2019-05-23T19:33:26.836Z,3.10
2019-05-23T19:35:55.217Z,2.70
2019-05-23T19:38:23.264Z,2.83
2019-05-23T19:40:51.038Z,3.00
2019-05-23T19:43:18.865Z,3.50
2019-05-23T19:45:47.612Z,2.80
2019-05-23T19:48:16.972Z,3.27
2019-05-23T19:50:45.480Z,3.30
2019-05-23T19:53:14.869Z,3.07
2019-05-23T19:55:43.813Z,3.70
2019-05-23T19:58:11.914Z,3.50
2019-05-23T20:00:40.726Z,3.20
2019-05-23T20:03:09.185Z,2.67
2019-05-23T20:05:38.509Z,2.67
2019-05-23T20:08:06.834Z,3.00
2019-05-23T20:10:36.928Z,2.40
2019-05-23T20:13:05.834Z,2.80
2019-05-23T20:15:33.815Z,3.00
2019-05-23T20:18:01.895Z,2.70
2019-05-23T20:20:30.836Z,2.90
2019-05-23T20:22:58.375Z,2.90
2019-05-23T20:25:26.244Z,2.70
2019-05-23T20:27:53.855Z,2.63
2019-05-23T20:30:53.549Z,3.10
2019-05-23T20:33:21.233Z,2.80
2019-05-23T20:35:48.991Z,3.00
2019-05-23T20:38:16.727Z,2.67
2019-05-23T20:40:44.462Z,3.07
2019-05-23T20:43:13.249Z,2.73
2019-05-23T20:45:41.048Z,3.07
2019-05-23T20:48:08.874Z,3.00
2019-05-23T20:50:36.667Z,3.97
2019-05-23T20:53:04.994Z,3.63
2019-05-23T20:55:33.318Z,3.90
2019-05-23T20:58:01.101Z,3.90
2019-05-23T21:00:41.656Z,3.97
2019-05-23T21:03:09.424Z,4.40
2019-05-23T21:05:37.448Z,3.50
2019-05-23T21:08:05.302Z,3.73
2019-05-23T21:10:47.753Z,3.60
2019-05-23T21:13:16.132Z,3.93
2019-05-23T21:15:45.064Z,13.90
2019-05-23T21:18:12.941Z,7.50
2019-05-23T21:20:41.051Z,4.30
2019-05-23T21:23:08.758Z,3.80
2019-05-23T21:25:38.172Z,3.17
2019-05-23T21:28:05.955Z,3.13
2019-05-23T21:30:33.634Z,3.13
2019-05-23T21:33:01.394Z,3.47
2019-05-23T21:35:28.990Z,3.17
2019-05-23T21:37:56.635Z,3.20
2019-05-23T21:40:40.754Z,3.60
2019-05-23T21:43:08.467Z,3.63
2019-05-23T21:45:36.328Z,3.17
2019-05-23T21:48:04.431Z,3.33
2019-05-23T21:50:32.384Z,3.17
2019-05-23T21:53:00.013Z,3.30
2019-05-23T21:55:34.827Z,3.50
2019-05-23T21:58:02.422Z,3.80
2019-05-23T22:01:16.677Z,4.13
2019-05-23T22:03:46.569Z,4.13
2019-05-23T22:06:16.314Z,3.90
2019-05-23T22:08:44.414Z,4.07
2019-05-23T22:11:12.167Z,4.20
2019-05-23T22:13:39.724Z,5.10
2019-05-23T22:16:07.774Z,5.07
2019-05-23T22:18:35.498Z,4.63
2019-05-23T22:21:03.089Z,4.97
2019-05-23T22:23:34.467Z,4.50
2019-05-23T22:26:00.757Z,4.63
2019-05-23T22:28:28.416Z,4.73
2019-05-23T22:30:56.158Z,3.87
2019-05-23T22:33:26.454Z,4.47
2019-05-23T22:35:54.239Z,3.73
2019-05-23T22:38:22.010Z,4.03
2019-05-23T22:40:50.736Z,4.37
2019-05-23T22:43:21.283Z,4.20
2019-05-23T22:45:48.624Z,3.53
2019-05-23T22:48:16.322Z,4.30
2019-05-23T22:50:44.084Z,4.20
2019-05-23T22:53:11.890Z,4.17
2019-05-23T22:55:39.609Z,4.50
2019-05-23T22:58:07.455Z,4.27
2019-05-23T23:00:37.140Z,4.20
2019-05-23T23:03:04.934Z,4.53
2019-05-23T23:05:32.541Z,3.93
2019-05-23T23:08:00.326Z,4.00
2019-05-23T23:10:28.011Z,4.10
2019-05-23T23:12:57.099Z,4.13
2019-05-23T23:15:26.798Z,4.03
2019-05-23T23:17:55.175Z,3.60
2019-05-23T23:20:22.786Z,3.90
2019-05-23T23:22:50.415Z,3.60
2019-05-23T23:25:18.168Z,4.50
2019-05-23T23:27:45.929Z,4.00
2019-05-23T23:30:15.884Z,3.90
2019-05-23T23:32:43.916Z,4.57
2019-05-23T23:35:11.733Z,3.77
2019-05-23T23:37:39.419Z,4.00
2019-05-23T23:40:08.252Z,4.27
2019-05-23T23:42:37.754Z,4.07
2019-05-23T23:45:24.691Z,4.20
2019-05-23T23:48:10.449Z,4.07
2019-05-23T23:50:55.943Z,3.83
2019-05-23T23:53:41.788Z,4.27
2019-05-23T23:56:27.651Z,4.10
2019-05-23T23:58:54.844Z,3.83
